Impacts TAF Board INFO
FOR SITUATIONAL AWARENESS. NOT TO BE USED FOR FLIGHT PLANNING PURPOSES.
IDs:

KLGA - New York/La Guardia, NY, US

Issued at 2320 UTC 24 May 2018
Updated at 0119 UTC 25 May 2018
Potential Impact None Slight Moderate High
Time<<26/02Z 26/03Z 26/04Z 26/05Z 26/06Z 26/07Z 26/08Z 26/09Z 26/10Z 26/11Z 26/12Z 26/13Z 26/14Z
Type PRVL PRVL PRVL PRVL
VIS >6 >6 >6 >6
CIG -- -- -- --
Cover SCT SCT SCT SCT
FltCat VFR VFR VFR VFR
WX -- -- -- --
WDir 220 220 220 220
WSpd 10 10 10 10
WGst -- -- -- --

Raw TAF
KLGA 242320Z 2500/2606 18012KT P6SM SKC
  FM250200 21006KT P6SM SKC
  FM250900 24005KT P6SM SKC
  FM251400 24009KT P6SM SKC
  FM251700 22013G23KT P6SM FEW250
  FM260000 22010KT P6SM SCT250


METAR Board
Radar Display
Forecast Discussion

FOR SITUATIONAL AWARENESS. NOT TO BE USED FOR FLIGHT PLANNING PURPOSES.